METAR AND TAF INFORMATION
METAR FOR KRNT
KRNT 130853Z AUTO 36004KT 10SM CLR 09/05 A2989 RMK AO2 SLP126 T00890050 50006
KRNT 130753Z AUTO 35005KT 10SM CLR 09/06 A2989 RMK AO2 SLP126 T00940056 401440083
KRNT 130653Z AUTO 36004KT 10SM CLR 10/06 A2988 RMK AO2 SLP124 T01000056

 AIRPORT MAP

 RUNWAY INFORMATION
Runway 16 Runway length 5382 ft Runway width 200 ft
Runway elevation 24 ft Runway displaced threshold 300 ft Runway heading 174
Runway 34 Runway length 5382 ft Runway width 200 ft
Runway elevation 32 ft Runway displaced threshold 340 ft Runway heading 354

 AIRPORT FREQUENCIES
Type A/D Name SEATTLE AP Frequency 119.2 MHZ
Type ATIS Name ATIS Frequency 126.95 MHZ
Type CTAF Name CTAF Frequency 124.7 MHZ
Type GND Name GND Frequency 121.6 MHZ
Type TWR Name TWR Frequency 124.7 MHZ
Type UNIC Name UNICOM Frequency 122.85 MHZ

 AIRPORT NEAR NAVIGATION AIDS
Type NDB Name Renton Frequency 353 KHZ

-